Time;durP1;ratioP1;P1;durP2;ratioP2;P2;SDS_P1;SDS_P2;PMS_P1;PMS_P2;Temp;Humidity;BMP_temperature;BMP_pressure;BME280_temperature;BME280_humidity;BME280_pressure;Samples;Min_cycle;Max_cycle;Signal;HPM_P1;HPM_P2
2022/01/17 00:01:00;;;;;;;3.30;1.77;;;8.00;45.70;;;;;;5080071;28;20385;-50
2022/01/17 00:03:26;;;;;;;4.85;2.60;;;7.90;46.00;;;;;;5079939;28;20169;-50
2022/01/17 00:05:52;;;;;;;5.40;2.67;;;7.90;46.10;;;;;;5079883;28;20249;-50
2022/01/17 00:08:18;;;;;;;7.00;2.25;;;7.70;47.10;;;;;;5078424;28;20662;-50
2022/01/17 00:10:44;;;;;;;5.30;1.90;;;7.60;47.10;;;;;;5079942;28;20179;-50
2022/01/17 00:13:14;;;;;;;3.30;1.63;;;7.60;47.40;;;;;;5078343;28;20414;-50
2022/01/17 00:15:49;;;;;;;5.78;2.30;;;7.70;47.20;;;;;;5079551;28;20190;-50
2022/01/17 00:20:45;;;;;;;3.20;2.50;;;7.90;46.60;;;;;;5079377;28;20216;-50
2022/01/17 00:23:11;;;;;;;5.53;2.63;;;8.00;46.60;;;;;;5079637;28;20152;-50
2022/01/17 00:25:37;;;;;;;2.55;2.25;;;7.90;47.00;;;;;;5079483;28;20267;-50
2022/01/17 00:28:02;;;;;;;3.30;2.17;;;7.80;47.30;;;;;;5079490;28;20218;-50
2022/01/17 00:30:29;;;;;;;3.57;2.00;;;7.80;47.30;;;;;;5079713;28;20511;-50
2022/01/17 00:32:54;;;;;;;4.43;2.42;;;7.90;47.00;;;;;;5079840;28;20179;-50
2022/01/17 00:35:20;;;;;;;2.70;1.83;;;8.00;46.70;;;;;;5079436;28;20168;-50
2022/01/17 00:37:48;;;;;;;4.03;3.40;;;8.00;46.70;;;;;;5076908;28;20651;-50
2022/01/17 00:40:14;;;;;;;8.25;2.22;;;8.00;46.60;;;;;;5074938;28;20636;-50
2022/01/17 00:42:40;;;;;;;2.60;1.90;;;7.90;46.80;;;;;;5076290;28;20181;-50
2022/01/17 00:45:07;;;;;;;5.18;2.78;;;8.00;46.70;;;;;;5076304;28;20337;-50
2022/01/17 00:47:34;;;;;;;1.88;1.33;;;8.00;46.60;;;;;;5076229;28;20177;-50
2022/01/17 00:49:59;;;;;;;3.85;1.60;;;8.00;46.80;;;;;;5076044;28;20256;-50
2022/01/17 00:52:25;;;;;;;7.00;4.37;;;8.00;46.60;;;;;;5076281;28;20212;-50
2022/01/17 00:54:51;;;;;;;3.73;2.10;;;8.10;46.40;;;;;;5075998;28;20157;-50
2022/01/17 00:57:17;;;;;;;6.63;3.00;;;8.10;46.70;;;;;;5076160;28;20176;-50
2022/01/17 00:59:43;;;;;;;3.50;2.08;;;8.20;46.30;;;;;;5075952;28;20170;-50
2022/01/17 01:02:08;;;;;;;7.73;3.40;;;8.10;46.40;;;;;;5075882;28;20257;-50
2022/01/17 01:04:34;;;;;;;4.90;1.83;;;8.00;46.70;;;;;;5075798;28;20201;-50
2022/01/17 01:07:00;;;;;;;5.00;2.30;;;8.10;46.70;;;;;;5074525;28;20185;-50
2022/01/17 01:09:30;;;;;;;6.67;2.77;;;8.00;46.70;;;;;;5075830;28;20163;-50
2022/01/17 01:11:55;;;;;;;5.45;1.92;;;8.00;46.80;;;;;;5075720;28;20184;-50
2022/01/17 01:14:21;;;;;;;4.73;2.10;;;8.00;46.80;;;;;;5075604;28;20252;-50
2022/01/17 01:16:47;;;;;;;3.73;2.70;;;8.00;47.00;;;;;;5074328;28;20255;-50
2022/01/17 01:19:27;;;;;;;3.43;1.37;;;7.90;47.20;;;;;;5075310;28;20225;-50
2022/01/17 01:27:38;;;;;;;4.57;1.77;;;7.80;47.70;;;;;;5075633;28;20385;-50
2022/01/17 01:30:10;;;;;;;5.88;2.33;;;8.00;47.60;;;;;;5075343;28;20160;-50
2022/01/17 01:32:45;;;;;;;2.78;2.08;;;8.00;47.50;;;;;;5075230;28;20177;-50
2022/01/17 01:35:13;;;;;;;6.07;2.92;;;7.90;47.90;;;;;;5075221;28;20624;-50
2022/01/17 01:37:39;;;;;;;1.52;1.20;;;7.80;48.60;;;;;;5075267;28;20173;-50
2022/01/17 01:40:05;;;;;;;3.60;1.97;;;7.80;48.60;;;;;;5073883;28;20306;-50
2022/01/17 01:42:33;;;;;;;6.75;2.28;;;7.80;48.50;;;;;;5075380;28;20251;-50
2022/01/17 01:45:01;;;;;;;5.72;2.47;;;7.90;48.70;;;;;;5074984;28;20611;-50
2022/01/17 01:47:27;;;;;;;6.03;1.90;;;8.00;48.30;;;;;;5074977;28;20182;-50
2022/01/17 01:49:53;;;;;;;3.92;2.28;;;8.00;48.20;;;;;;5073934;28;20671;-50
2022/01/17 01:52:19;;;;;;;3.70;1.95;;;7.90;48.70;;;;;;5073616;28;20172;-50
2022/01/17 01:54:46;;;;;;;2.33;1.42;;;7.90;48.60;;;;;;5074905;28;20163;-50
2022/01/17 01:57:12;;;;;;;2.00;1.35;;;8.00;48.20;;;;;;5074774;28;20171;-50
2022/01/17 01:59:38;;;;;;;4.07;2.93;;;8.10;48.10;;;;;;5074747;28;20172;-50
2022/01/17 02:02:06;;;;;;;3.03;2.40;;;8.00;48.40;;;;;;5074710;28;20160;-50
2022/01/17 02:04:32;;;;;;;3.17;2.20;;;8.00;48.30;;;;;;5074568;28;20189;-50
2022/01/17 02:06:58;;;;;;;6.40;2.05;;;8.00;48.90;;;;;;5074569;28;20554;-50
2022/01/17 02:09:24;;;;;;;2.03;1.43;;;7.90;48.80;;;;;;5074800;28;20162;-50
2022/01/17 02:11:50;;;;;;;3.97;2.50;;;8.00;48.60;;;;;;5074643;28;20415;-50
2022/01/17 02:14:16;;;;;;;3.15;2.20;;;8.00;48.80;;;;;;5074394;28;20428;-50
2022/01/17 02:16:44;;;;;;;5.87;3.00;;;8.10;48.90;;;;;;5073104;28;20212;-50
2022/01/17 02:19:10;;;;;;;7.00;2.83;;;8.00;49.20;;;;;;5074050;28;20193;-50
2022/01/17 02:21:49;;;;;;;4.32;2.30;;;7.90;49.70;;;;;;5074381;28;20261;-50
2022/01/17 02:24:18;;;;;;;5.68;3.03;;;8.00;49.30;;;;;;5074202;28;20199;-50
2022/01/17 02:26:45;;;;;;;6.18;2.35;;;8.00;49.30;;;;;;5073347;28;20189;-50
2022/01/17 02:29:11;;;;;;;2.90;2.10;;;8.00;49.50;;;;;;5074146;28;20223;-50
2022/01/17 02:31:38;;;;;;;3.83;2.23;;;8.00;49.40;;;;;;5074100;28;20172;-50
2022/01/17 02:34:03;;;;;;;3.85;2.28;;;8.00;49.30;;;;;;5074053;28;20171;-50
2022/01/17 02:36:31;;;;;;;3.83;2.47;;;8.00;49.20;;;;;;5072769;28;20657;-50
2022/01/17 02:38:57;;;;;;;2.80;1.73;;;7.90;49.90;;;;;;5074124;28;20176;-50
2022/01/17 02:41:31;;;;;;;5.28;2.30;;;7.90;50.10;;;;;;5072682;28;20691;-50
2022/01/17 02:44:00;;;;;;;3.65;2.15;;;8.00;49.80;;;;;;5073792;28;20173;-50
2022/01/17 02:46:26;;;;;;;3.33;1.52;;;7.90;49.90;;;;;;5073870;28;20179;-50
2022/01/17 02:48:52;;;;;;;4.80;2.00;;;8.00;49.70;;;;;;5073930;28;20637;-50
2022/01/17 02:51:18;;;;;;;4.28;2.78;;;8.10;49.70;;;;;;5073794;28;20428;-50
2022/01/17 02:53:44;;;;;;;3.07;2.17;;;8.20;49.40;;;;;;5073873;28;20178;-50
2022/01/17 02:56:10;;;;;;;5.93;2.63;;;8.10;49.90;;;;;;5073744;28;20165;-50
2022/01/17 02:58:37;;;;;;;3.08;2.20;;;8.10;49.80;;;;;;5073846;28;20919;-50
2022/01/17 03:01:24;;;;;;;4.30;2.72;;;8.20;49.70;;;;;;5073345;28;20320;-50
2022/01/17 03:03:51;;;;;;;2.90;2.15;;;8.10;51.30;;;;;;5073600;28;20210;-50
2022/01/17 03:06:18;;;;;;;2.85;2.50;;;8.00;50.80;;;;;;5072196;28;20208;-50
2022/01/17 03:08:45;;;;;;;1.90;1.35;;;8.10;51.00;;;;;;5073767;28;20578;-50
2022/01/17 03:11:13;;;;;;;2.88;1.52;;;7.90;51.50;;;;;;5073846;28;20170;-50
2022/01/17 03:13:40;;;;;;;3.65;1.52;;;8.00;51.30;;;;;;5073557;28;20206;-50
2022/01/17 03:16:13;;;;;;;1.90;1.65;;;7.90;51.30;;;;;;5073749;28;20172;-50
2022/01/17 03:18:50;;;;;;;1.95;1.48;;;8.70;51.70;;;;;;5072641;28;20182;-50
2022/01/17 03:21:18;;;;;;;3.28;2.08;;;8.00;51.10;;;;;;5073317;28;20251;-50
2022/01/17 03:23:45;;;;;;;2.50;1.30;;;8.00;51.30;;;;;;5073813;28;20582;-50
2022/01/17 03:26:11;;;;;;;2.05;0.90;;;8.10;51.60;;;;;;5073612;28;20190;-50
2022/01/17 03:28:38;;;;;;;3.25;1.50;;;8.20;50.40;;;;;;5073485;28;20178;-50
2022/01/17 03:31:06;;;;;;;1.58;0.98;;;8.10;50.70;;;;;;5073359;28;20632;-50
2022/01/17 03:33:32;;;;;;;5.85;2.60;;;8.00;50.70;;;;;;5073532;28;20225;-50
2022/01/17 03:35:58;;;;;;;2.58;1.55;;;8.00;50.60;;;;;;5073307;28;20161;-50
2022/01/17 03:38:26;;;;;;;3.80;2.00;;;7.90;50.80;;;;;;5073281;28;20210;-50
2022/01/17 03:40:52;;;;;;;2.13;1.42;;;7.90;50.60;;;;;;5073259;28;20410;-50
2022/01/17 03:43:20;;;;;;;4.33;2.10;;;8.00;50.60;;;;;;5073246;28;20176;-50
2022/01/17 03:45:46;;;;;;;5.60;2.00;;;8.10;49.90;;;;;;5073536;28;20450;-50
2022/01/17 03:48:13;;;;;;;5.70;1.90;;;8.20;49.60;;;;;;5073152;28;20667;-50
2022/01/17 03:50:39;;;;;;;7.45;1.98;;;8.30;50.10;;;;;;5071918;28;20530;-50
2022/01/17 03:53:05;;;;;;;2.90;1.80;;;8.30;49.30;;;;;;5073417;28;20171;-50
2022/01/17 03:55:33;;;;;;;3.23;1.33;;;8.30;49.30;;;;;;5073330;28;20483;-50
2022/01/17 03:58:00;;;;;;;3.60;1.42;;;8.40;49.10;;;;;;5073362;28;20179;-50
2022/01/17 04:00:32;;;;;;;2.85;1.38;;;8.30;49.20;;;;;;5071779;28;20169;-50
2022/01/17 04:02:58;;;;;;;3.80;2.28;;;8.40;48.90;;;;;;5073121;28;20157;-50
2022/01/17 04:05:25;;;;;;;5.30;2.10;;;8.40;48.80;;;;;;5072860;28;20197;-50
2022/01/17 04:07:50;;;;;;;3.80;1.90;;;8.40;48.80;;;;;;5071729;28;20175;-50
2022/01/17 04:10:16;;;;;;;3.27;2.27;;;8.40;48.70;;;;;;5071673;28;20175;-50
2022/01/17 04:12:44;;;;;;;2.33;1.40;;;8.40;48.70;;;;;;5071694;28;20186;-50
2022/01/17 04:15:11;;;;;;;1.67;1.02;;;8.40;48.80;;;;;;5076491;28;20158;-50
2022/01/17 04:17:39;;;;;;;2.10;0.90;;;8.40;48.60;;;;;;5076747;28;20246;-50
2022/01/17 04:20:09;;;;;;;5.75;2.28;;;8.40;48.70;;;;;;5075221;28;20214;-50
2022/01/17 04:22:41;;;;;;;3.45;2.35;;;8.40;48.50;;;;;;5076657;28;20171;-50
2022/01/17 04:25:07;;;;;;;2.55;1.63;;;8.40;48.50;;;;;;5076448;28;20218;-50
2022/01/17 04:27:34;;;;;;;2.70;1.00;;;8.50;48.30;;;;;;5076604;28;20281;-50
2022/01/17 04:30:00;;;;;;;2.65;1.35;;;8.60;48.10;;;;;;5075119;28;20186;-50
2022/01/17 04:32:26;;;;;;;3.67;1.67;;;8.70;47.80;;;;;;5076343;28;20168;-50
2022/01/17 04:34:52;;;;;;;3.07;1.40;;;8.60;47.80;;;;;;5075069;28;20169;-50
2022/01/17 04:37:18;;;;;;;6.07;1.70;;;8.60;48.00;;;;;;5075033;28;20178;-50
2022/01/17 04:39:44;;;;;;;3.20;1.80;;;8.50;48.30;;;;;;5075137;28;20422;-50
2022/01/17 04:42:13;;;;;;;4.47;1.80;;;8.60;48.20;;;;;;5076135;28;20484;-50
2022/01/17 04:47:30;;;;;;;3.25;1.33;;;8.60;48.00;;;;;;5076555;28;20529;-50
2022/01/17 04:49:57;;;;;;;1.90;0.75;;;8.50;48.60;;;;;;5076053;28;20197;-50
2022/01/17 04:52:22;;;;;;;4.57;1.77;;;8.60;48.30;;;;;;5076026;28;20218;-50
2022/01/17 04:54:53;;;;;;;2.03;0.90;;;8.60;48.10;;;;;;5074711;28;20169;-50
2022/01/17 04:57:19;;;;;;;1.48;0.85;;;8.60;48.00;;;;;;5075966;28;20160;-50
2022/01/17 04:59:45;;;;;;;2.43;1.10;;;8.60;48.00;;;;;;5075852;28;20542;-50
2022/01/17 05:02:11;;;;;;;1.40;1.03;;;8.60;47.80;;;;;;5075859;28;20163;-50
2022/01/17 05:04:37;;;;;;;2.38;0.98;;;8.70;47.80;;;;;;5074478;28;20464;-50
2022/01/17 05:07:05;;;;;;;1.60;1.00;;;8.60;47.90;;;;;;5075825;28;20165;-50
2022/01/17 05:09:31;;;;;;;2.20;1.35;;;8.60;47.70;;;;;;5075802;28;20535;-50
2022/01/17 05:11:57;;;;;;;1.85;1.20;;;8.70;47.90;;;;;;5075567;28;20198;-50
2022/01/17 05:14:24;;;;;;;2.50;1.67;;;8.80;47.40;;;;;;5075636;28;20188;-50
2022/01/17 05:16:57;;;;;;;3.15;1.20;;;8.80;47.10;;;;;;5075676;28;20172;-50
2022/01/17 05:22:07;;;;;;;1.55;0.55;;;8.80;46.90;;;;;;5075494;28;20160;-50
2022/01/17 05:24:33;;;;;;;2.80;1.63;;;8.80;47.20;;;;;;5075062;28;20201;-50
2022/01/17 05:26:58;;;;;;;2.40;1.40;;;9.00;46.80;;;;;;5075308;28;20460;-50
2022/01/17 05:29:24;;;;;;;2.10;1.20;;;8.80;47.00;;;;;;5075329;28;20168;-50
2022/01/17 05:31:50;;;;;;;2.23;1.60;;;8.70;47.30;;;;;;5075241;28;20266;-50
2022/01/17 05:34:15;;;;;;;1.97;0.80;;;8.80;47.00;;;;;;5075270;28;20224;-50
2022/01/17 05:36:41;;;;;;;2.37;1.27;;;8.90;47.40;;;;;;5074137;28;20173;-50
2022/01/17 05:39:07;;;;;;;2.90;1.33;;;8.90;47.60;;;;;;5075248;28;20180;-50
2022/01/17 05:41:32;;;;;;;6.23;1.80;;;9.00;47.80;;;;;;5073761;28;20174;-50
2022/01/17 05:43:59;;;;;;;4.80;1.60;;;8.90;48.60;;;;;;5073690;28;20172;-50
2022/01/17 05:46:24;;;;;;;1.83;1.10;;;8.80;48.80;;;;;;5075091;28;20207;-50
2022/01/17 05:48:50;;;;;;;2.90;1.50;;;8.90;48.50;;;;;;5073590;28;20224;-50
2022/01/17 05:51:16;;;;;;;3.57;1.23;;;8.80;48.40;;;;;;5074858;28;20250;-50
2022/01/17 05:53:41;;;;;;;1.10;0.63;;;8.90;48.10;;;;;;5074895;28;20574;-50
2022/01/17 05:56:08;;;;;;;1.97;1.00;;;9.20;47.70;;;;;;5074749;28;20161;-50
2022/01/17 05:58:34;;;;;;;2.05;1.55;;;9.00;47.20;;;;;;5074803;28;20169;-50
2022/01/17 06:00:59;;;;;;;2.87;1.60;;;9.00;47.70;;;;;;5074545;28;20204;-50
2022/01/17 06:03:25;;;;;;;1.30;0.80;;;9.00;47.40;;;;;;5074819;28;20198;-50
2022/01/17 06:05:52;;;;;;;8.02;1.60;;;9.00;47.30;;;;;;5074477;28;20963;-50
2022/01/17 06:08:18;;;;;;;2.17;1.30;;;9.00;47.90;;;;;;5074495;28;20260;-50
2022/01/17 06:10:44;;;;;;;3.40;1.03;;;9.00;47.30;;;;;;5074423;28;20245;-50
2022/01/17 06:13:09;;;;;;;1.50;0.70;;;9.00;46.90;;;;;;5074443;28;20602;-50
2022/01/17 06:15:35;;;;;;;3.07;1.30;;;8.90;47.40;;;;;;5074381;28;20160;-50
2022/01/17 06:18:01;;;;;;;1.90;1.00;;;9.00;47.60;;;;;;5072926;28;20649;-50
2022/01/17 06:20:27;;;;;;;3.57;1.27;;;9.00;47.80;;;;;;5074025;28;20305;-50
2022/01/17 06:22:52;;;;;;;4.00;2.25;;;9.10;48.30;;;;;;5074060;28;20415;-50
2022/01/17 06:25:18;;;;;;;1.50;0.90;;;9.20;48.60;;;;;;5074240;28;20199;-50
2022/01/17 06:27:44;;;;;;;2.47;0.90;;;9.00;49.00;;;;;;5074198;28;20538;-50
2022/01/17 06:30:13;;;;;;;2.40;0.73;;;8.80;49.50;;;;;;5074128;28;20168;-50
2022/01/17 06:32:39;;;;;;;1.75;0.98;;;8.80;49.40;;;;;;5073996;28;20264;-50
2022/01/17 06:35:05;;;;;;;2.08;1.00;;;8.80;49.60;;;;;;5073989;28;20168;-50
2022/01/17 06:37:31;;;;;;;2.28;1.20;;;8.60;49.90;;;;;;5073446;28;20174;-50
2022/01/17 06:39:57;;;;;;;2.67;1.07;;;8.70;49.70;;;;;;5074038;28;20186;-50
2022/01/17 06:42:23;;;;;;;2.50;1.40;;;8.80;49.30;;;;;;5074015;28;20426;-50
2022/01/17 06:44:50;;;;;;;1.98;1.40;;;8.90;48.90;;;;;;5073796;28;20652;-50
2022/01/17 06:47:16;;;;;;;1.95;1.30;;;8.80;48.70;;;;;;5073677;28;20173;-50
2022/01/17 06:49:42;;;;;;;2.47;1.08;;;8.70;48.60;;;;;;5073726;28;20175;-50
2022/01/17 06:52:08;;;;;;;2.30;0.90;;;8.70;48.90;;;;;;5072441;28;20173;-50
2022/01/17 06:54:33;;;;;;;2.43;1.13;;;8.60;48.90;;;;;;5074000;28;20339;-50
2022/01/17 06:56:59;;;;;;;4.60;1.90;;;8.60;48.60;;;;;;5073601;28;20410;-50
2022/01/17 06:59:25;;;;;;;2.03;1.33;;;8.60;49.10;;;;;;5072342;28;20206;-50
2022/01/17 07:01:50;;;;;;;3.70;1.30;;;8.50;49.10;;;;;;5072309;28;20172;-49
2022/01/17 07:04:16;;;;;;;3.07;2.00;;;8.50;49.20;;;;;;5073547;28;20662;-49
2022/01/17 07:06:42;;;;;;;1.63;1.07;;;8.60;49.10;;;;;;5073649;28;20201;-50
2022/01/17 07:09:16;;;;;;;2.78;1.50;;;8.60;48.70;;;;;;5073427;28;20659;-50
2022/01/17 07:11:43;;;;;;;2.17;1.05;;;8.60;48.70;;;;;;5073528;28;20162;-50
2022/01/17 07:14:10;;;;;;;2.40;1.08;;;8.50;48.60;;;;;;5073424;28;20164;-50
2022/01/17 07:16:37;;;;;;;2.38;1.15;;;8.50;48.90;;;;;;5073512;28;20661;-50
2022/01/17 07:19:03;;;;;;;1.40;0.80;;;8.50;48.70;;;;;;5073412;28;20246;-50
2022/01/17 07:21:29;;;;;;;2.13;1.30;;;8.50;48.60;;;;;;5073508;28;20196;-50
2022/01/17 07:23:55;;;;;;;2.30;0.70;;;8.50;48.20;;;;;;5073374;28;20179;-50
2022/01/17 07:26:21;;;;;;;2.13;1.17;;;8.40;48.30;;;;;;5073233;28;20191;-49
2022/01/17 07:28:46;;;;;;;3.83;1.60;;;8.30;48.90;;;;;;5073399;28;20701;-49
2022/01/17 07:31:12;;;;;;;2.13;1.10;;;8.20;49.20;;;;;;5073313;28;20472;-50
2022/01/17 07:33:38;;;;;;;2.73;1.50;;;8.40;48.60;;;;;;5073378;28;20168;-49
2022/01/17 07:36:05;;;;;;;1.10;0.40;;;8.30;48.60;;;;;;5073208;28;20421;-49
2022/01/17 07:38:33;;;;;;;1.13;0.50;;;8.30;48.80;;;;;;5071969;28;20171;-49
2022/01/17 07:40:59;;;;;;;1.67;0.82;;;8.30;48.60;;;;;;5073058;28;20207;-49
2022/01/17 07:43:24;;;;;;;2.17;1.20;;;8.20;49.00;;;;;;5073315;28;20558;-49
2022/01/17 07:46:18;;;;;;;1.67;0.73;;;8.20;49.10;;;;;;5073150;28;20658;-49
2022/01/17 07:48:57;;;;;;;2.05;1.20;;;8.20;49.20;;;;;;5075848;28;20196;-50
2022/01/17 07:51:25;;;;;;;3.85;2.47;;;8.30;49.10;;;;;;5077535;28;20173;-49
2022/01/17 07:53:51;;;;;;;2.50;0.60;;;8.40;49.00;;;;;;5077198;28;20170;-49
2022/01/17 07:56:16;;;;;;;1.60;0.63;;;8.50;48.90;;;;;;5077046;28;20203;-49
2022/01/17 07:58:42;;;;;;;1.10;0.60;;;8.50;48.90;;;;;;5075924;28;20262;-49
2022/01/17 08:01:08;;;;;;;6.63;0.90;;;8.60;48.70;;;;;;5077220;28;20171;-50
2022/01/17 08:03:34;;;;;;;1.70;0.85;;;8.30;49.50;;;;;;5075804;28;20631;-49
2022/01/17 08:06:00;;;;;;;5.60;1.23;;;8.30;49.80;;;;;;5076817;28;20198;-49
2022/01/17 08:08:26;;;;;;;1.20;0.83;;;8.30;50.20;;;;;;5075526;28;20251;-49
2022/01/17 08:10:52;;;;;;;1.20;0.50;;;8.40;49.90;;;;;;5076828;28;20417;-49
2022/01/17 08:13:20;;;;;;;2.80;1.03;;;8.40;49.90;;;;;;5076813;28;20411;-49
2022/01/17 08:15:47;;;;;;;1.77;0.95;;;8.40;50.00;;;;;;5076728;28;20917;-49
2022/01/17 08:18:14;;;;;;;2.20;0.60;;;8.40;50.10;;;;;;5075334;28;20176;-50
2022/01/17 08:20:41;;;;;;;1.35;0.90;;;8.40;50.80;;;;;;5076379;28;20235;-50
2022/01/17 08:23:06;;;;;;;1.17;0.70;;;8.50;50.70;;;;;;5076532;28;20640;-49
2022/01/17 08:25:32;;;;;;;1.10;0.60;;;8.50;51.20;;;;;;5076688;28;20210;-49
2022/01/17 08:27:58;;;;;;;1.70;0.63;;;8.40;51.80;;;;;;5075714;28;20435;-50
2022/01/17 08:30:24;;;;;;;1.90;0.90;;;8.40;52.20;;;;;;5076387;28;20503;-50
2022/01/17 08:32:51;;;;;;;2.33;0.87;;;8.30;53.00;;;;;;5076328;28;20639;-50
2022/01/17 08:35:18;;;;;;;1.70;0.70;;;8.30;52.90;;;;;;5076461;28;20416;-49
2022/01/17 08:37:44;;;;;;;1.95;0.95;;;8.30;53.00;;;;;;5074923;28;20171;-49
2022/01/17 08:40:10;;;;;;;2.03;1.47;;;8.30;53.30;;;;;;5076318;28;20332;-50
2022/01/17 08:42:37;;;;;;;2.42;0.60;;;8.30;53.00;;;;;;5076135;28;20168;-49
2022/01/17 08:45:11;;;;;;;1.73;0.80;;;8.40;52.90;;;;;;5076335;28;20208;-50
2022/01/17 08:47:37;;;;;;;1.73;0.77;;;8.30;53.10;;;;;;5076374;28;20529;-50
2022/01/17 08:50:05;;;;;;;1.10;0.50;;;8.20;54.30;;;;;;5076341;28;20168;-50
2022/01/17 08:52:30;;;;;;;2.90;1.50;;;8.10;54.00;;;;;;5075969;28;20429;-50
2022/01/17 08:54:57;;;;;;;1.17;0.50;;;8.10;54.20;;;;;;5076263;28;20168;-50
2022/01/17 08:57:24;;;;;;;1.42;0.82;;;8.10;53.90;;;;;;5076220;28;20183;-50
2022/01/17 08:59:50;;;;;;;2.22;1.25;;;8.10;54.00;;;;;;5074435;28;20213;-50
2022/01/17 09:02:16;;;;;;;1.65;1.02;;;8.20;53.60;;;;;;5076066;28;20256;-50
2022/01/17 09:04:42;;;;;;;1.00;0.30;;;8.20;53.60;;;;;;5075816;28;20668;-50
2022/01/17 09:07:14;;;;;;;1.75;0.85;;;8.20;53.60;;;;;;5076037;28;20418;-50
2022/01/17 09:09:41;;;;;;;3.38;0.95;;;8.20;53.40;;;;;;5075690;28;20191;-50
2022/01/17 09:12:09;;;;;;;2.95;1.00;;;8.20;53.60;;;;;;5075680;28;20172;-50
2022/01/17 09:14:35;;;;;;;1.40;0.75;;;8.20;53.10;;;;;;5074340;28;20172;-50
2022/01/17 09:17:03;;;;;;;1.25;0.40;;;8.10;53.60;;;;;;5075864;28;20682;-50
2022/01/17 09:19:29;;;;;;;1.67;1.02;;;8.00;54.00;;;;;;5075420;28;20318;-50
2022/01/17 09:21:54;;;;;;;1.30;0.60;;;8.00;54.20;;;;;;5075519;28;20257;-50
2022/01/17 09:24:21;;;;;;;1.57;0.77;;;7.90;54.40;;;;;;5075380;28;20607;-50
2022/01/17 09:26:47;;;;;;;1.42;0.60;;;7.80;54.80;;;;;;5075450;28;20257;-50
2022/01/17 09:29:13;;;;;;;1.97;0.53;;;7.90;54.60;;;;;;5075663;28;20257;-50
2022/01/17 09:31:39;;;;;;;1.60;0.93;;;7.90;54.30;;;;;;5075332;28;20165;-50
2022/01/17 09:34:04;;;;;;;1.10;0.50;;;7.90;54.30;;;;;;5075139;28;20174;-50
2022/01/17 09:36:33;;;;;;;1.33;0.57;;;7.90;54.40;;;;;;5075769;28;20410;-50
2022/01/17 09:38:59;;;;;;;1.38;0.45;;;7.90;54.10;;;;;;5073911;28;20450;-50
2022/01/17 09:41:25;;;;;;;1.63;1.00;;;7.90;53.90;;;;;;5075101;28;20637;-50
2022/01/17 09:43:52;;;;;;;1.60;0.60;;;7.90;54.50;;;;;;5075342;28;20181;-50
2022/01/17 09:46:22;;;;;;;1.20;0.93;;;8.00;53.70;;;;;;5074942;28;20199;-50
2022/01/17 09:48:50;;;;;;;1.58;1.13;;;8.00;53.30;;;;;;5075263;28;20171;-50
2022/01/17 09:54:05;;;;;;;1.10;0.40;;;7.90;53.50;;;;;;5075257;28;20173;-50
2022/01/17 09:56:31;;;;;;;1.65;0.50;;;7.90;53.70;;;;;;5074877;28;20158;-50
2022/01/17 09:58:58;;;;;;;2.27;0.90;;;7.60;53.60;;;;;;5074757;28;20512;-50
2022/01/17 10:01:25;;;;;;;1.50;0.50;;;7.80;53.60;;;;;;5074707;28;20415;-50
2022/01/17 10:03:56;;;;;;;1.30;0.70;;;7.90;53.80;;;;;;5074715;28;20175;-50
2022/01/17 10:06:23;;;;;;;1.45;1.00;;;8.20;53.10;;;;;;5074569;28;20245;-50
2022/01/17 10:08:49;;;;;;;1.35;0.60;;;8.30;52.50;;;;;;5074570;28;20181;-50
2022/01/17 10:11:16;;;;;;;3.47;1.10;;;8.40;51.80;;;;;;5073596;28;20164;-50
2022/01/17 10:13:47;;;;;;;1.40;0.90;;;8.40;52.00;;;;;;5074752;28;20225;-50
2022/01/17 10:16:15;;;;;;;1.00;0.40;;;8.30;52.20;;;;;;5074707;28;20166;-50
2022/01/17 10:18:55;;;;;;;1.40;0.80;;;8.40;51.90;;;;;;5074382;28;20199;-50
2022/01/17 10:21:31;;;;;;;1.20;0.45;;;8.40;52.00;;;;;;5074209;28;20227;-49
2022/01/17 10:29:33;;;;;;;2.00;0.50;;;8.50;51.90;;;;;;5074166;28;20185;-50
2022/01/17 10:37:22;;;;;;;2.22;1.20;;;8.80;51.30;;;;;;5074303;28;20194;-50
2022/01/17 10:40:12;;;;;;;1.00;0.40;;;8.70;51.50;;;;;;5074064;28;20188;-50
2022/01/17 10:42:45;;;;;;;1.30;0.50;;;8.80;51.40;;;;;;5074257;28;20175;-50
2022/01/17 10:45:16;;;;;;;1.23;0.60;;;8.80;51.50;;;;;;5073867;28;20203;-50
2022/01/17 10:47:44;;;;;;;1.00;0.40;;;8.60;52.30;;;;;;5073872;28;20588;-50
2022/01/17 10:50:10;;;;;;;2.25;0.57;;;8.50;53.20;;;;;;5073971;28;20172;-50
2022/01/17 10:52:42;;;;;;;1.90;0.50;;;8.40;53.90;;;;;;5073850;28;20167;-50
2022/01/17 10:55:30;;;;;;;1.23;0.70;;;8.40;53.90;;;;;;5072469;28;20248;-50
2022/01/17 10:57:59;;;;;;;1.40;0.80;;;8.40;54.00;;;;;;5072713;28;20639;-50
2022/01/17 11:00:30;;;;;;;1.10;0.35;;;8.50;53.90;;;;;;5073715;28;20179;-50
2022/01/17 11:02:59;;;;;;;1.55;0.45;;;8.60;53.60;;;;;;5073755;28;20508;-50
2022/01/17 11:05:27;;;;;;;2.65;1.15;;;8.60;53.30;;;;;;5072205;28;20207;-49
2022/01/17 11:07:56;;;;;;;1.27;0.65;;;8.60;54.10;;;;;;5073642;28;20176;-50
2022/01/17 11:10:27;;;;;;;1.75;0.75;;;8.40;53.60;;;;;;5073509;28;20173;-50
2022/01/17 11:12:57;;;;;;;1.45;0.73;;;8.30;54.00;;;;;;5073587;28;20236;-49
2022/01/17 11:15:24;;;;;;;1.63;0.65;;;8.40;53.80;;;;;;5073598;28;20179;-50
2022/01/17 11:17:52;;;;;;;1.30;0.50;;;8.50;52.90;;;;;;5073759;28;20175;-49
2022/01/17 11:20:21;;;;;;;1.58;0.85;;;8.60;53.20;;;;;;5073240;28;20212;-50
2022/01/17 11:22:49;;;;;;;1.00;0.40;;;8.70;52.70;;;;;;5073136;28;20165;-50
2022/01/17 11:25:18;;;;;;;1.67;0.50;;;8.60;52.90;;;;;;5073227;28;20281;-50
2022/01/17 11:27:45;;;;;;;2.15;0.70;;;8.50;53.60;;;;;;5071116;28;20193;-50
2022/01/17 11:30:11;;;;;;;1.08;0.40;;;8.70;53.30;;;;;;5073330;28;20190;-50
2022/01/17 11:32:37;;;;;;;1.13;0.40;;;8.80;52.80;;;;;;5073303;28;20185;-50
2022/01/17 11:35:04;;;;;;;2.03;0.80;;;8.70;53.20;;;;;;5073332;28;20160;-50
2022/01/17 11:37:34;;;;;;;1.10;0.50;;;8.80;53.10;;;;;;5073467;28;20666;-50
2022/01/17 11:40:00;;;;;;;1.20;0.80;;;8.90;52.60;;;;;;5073281;28;20520;-50
2022/01/17 11:42:47;;;;;;;2.30;2.15;;;8.90;52.30;;;;;;5073355;28;20220;-50
2022/01/17 11:45:22;;;;;;;1.00;0.30;;;8.90;52.80;;;;;;5073174;28;20190;-50
2022/01/17 11:47:52;;;;;;;1.77;1.00;;;8.80;53.00;;;;;;5073147;28;20257;-50
2022/01/17 11:50:27;;;;;;;1.58;0.88;;;8.80;53.20;;;;;;5073445;28;20528;-50
2022/01/17 11:52:54;;;;;;;1.40;0.77;;;8.80;53.40;;;;;;5073061;28;20176;-50
2022/01/17 11:55:38;;;;;;;1.25;0.68;;;8.80;53.40;;;;;;5073253;28;20221;-50
2022/01/17 11:58:40;;;;;;;1.45;0.70;;;8.80;53.40;;;;;;5073032;28;20171;-50
2022/01/17 12:01:16;;;;;;;1.30;0.80;;;8.90;53.30;;;;;;5073097;28;20531;-50
2022/01/17 12:03:51;;;;;;;1.10;0.60;;;8.80;53.30;;;;;;5073215;28;20151;-49
2022/01/17 12:06:33;;;;;;;1.30;0.73;;;8.90;53.20;;;;;;5072852;28;20571;-50
2022/01/17 12:09:19;;;;;;;1.55;0.93;;;8.90;53.20;;;;;;5073044;28;20647;-50
2022/01/17 12:11:45;;;;;;;5.20;0.70;;;8.80;53.20;;;;;;5072979;28;20172;-50
2022/01/17 12:14:32;;;;;;;1.00;0.40;;;8.90;53.40;;;;;;5072936;28;20256;-49
2022/01/17 12:17:19;;;;;;;1.00;0.40;;;8.80;53.70;;;;;;5073198;28;20220;-50
2022/01/17 12:20:03;;;;;;;1.35;0.85;;;8.80;54.10;;;;;;5072568;28;20575;-50
2022/01/17 12:22:30;;;;;;;1.40;0.70;;;8.70;54.70;;;;;;5071876;28;20535;-50
2022/01/17 12:24:56;;;;;;;1.30;0.80;;;8.90;54.70;;;;;;5072970;28;20536;-50
2022/01/17 12:27:25;;;;;;;1.20;0.70;;;8.90;54.60;;;;;;5072727;28;20183;-50
2022/01/17 12:29:54;;;;;;;1.52;0.63;;;8.90;54.90;;;;;;5071519;28;20199;-50
2022/01/17 12:32:28;;;;;;;1.73;0.60;;;8.90;56.00;;;;;;5072744;28;20248;-50
2022/01/17 12:35:11;;;;;;;1.58;0.80;;;8.80;55.50;;;;;;5074214;28;20161;-50
2022/01/17 12:37:41;;;;;;;2.10;0.95;;;8.90;55.60;;;;;;5076503;28;20163;-50
2022/01/17 12:40:20;;;;;;;2.33;0.45;;;8.80;55.50;;;;;;5076375;28;20194;-50
2022/01/17 12:42:50;;;;;;;1.35;0.75;;;8.80;55.40;;;;;;5076377;28;20603;-50
2022/01/17 12:45:40;;;;;;;1.65;0.75;;;8.80;55.40;;;;;;5076089;28;20191;-50
2022/01/17 12:48:11;;;;;;;2.00;0.77;;;8.80;55.10;;;;;;5073282;28;20178;-50
2022/01/17 12:50:38;;;;;;;1.75;0.65;;;8.70;55.50;;;;;;5076247;28;20240;-50
2022/01/17 12:53:06;;;;;;;1.63;1.10;;;8.80;55.20;;;;;;5075992;28;20677;-50
2022/01/17 12:55:39;;;;;;;2.22;0.63;;;8.80;55.20;;;;;;5074997;28;20171;-50
2022/01/17 12:58:14;;;;;;;1.00;0.40;;;8.90;54.40;;;;;;5076007;28;20165;-50
2022/01/17 13:00:52;;;;;;;1.20;0.47;;;9.10;54.00;;;;;;5075960;28;20175;-50
2022/01/17 13:03:19;;;;;;;1.10;0.40;;;9.20;53.60;;;;;;5075922;28;20149;-50
2022/01/17 13:05:46;;;;;;;1.30;0.57;;;9.20;52.00;;;;;;5075846;28;20554;-50
2022/01/17 13:08:15;;;;;;;0.95;0.30;;;9.00;47.50;;;;;;5075798;28;20201;-50
2022/01/17 13:10:41;;;;;;;1.00;0.30;;;8.70;47.00;;;;;;5075716;28;20160;-50
2022/01/17 13:13:15;;;;;;;1.00;0.30;;;8.30;47.40;;;;;;5074523;28;20173;-50
2022/01/17 13:16:07;;;;;;;0.98;0.35;;;8.00;48.40;;;;;;5075667;28;20209;-50
2022/01/17 13:18:34;;;;;;;2.65;0.60;;;7.80;49.60;;;;;;5075926;28;20168;-50
2022/01/17 13:21:02;;;;;;;1.00;0.30;;;7.60;49.10;;;;;;5075279;28;20224;-50
2022/01/17 13:23:52;;;;;;;1.10;0.50;;;7.50;49.30;;;;;;5074230;28;20174;-50
2022/01/17 13:26:26;;;;;;;1.00;0.30;;;7.40;49.60;;;;;;5075703;28;20229;-50
2022/01/17 13:28:54;;;;;;;2.47;0.82;;;7.30;50.00;;;;;;5075452;28;20183;-50
2022/01/17 13:31:29;;;;;;;0.90;0.20;;;7.20;50.30;;;;;;5074710;28;20263;-50